Latest Weather Observations for Strahan

IDT60801

Issued at 12:02 am EDT Tuesday 24 October 2017 (issued every 30 minutes, with the page automatically refreshed every 10 minutes)

About weather observations | Map of weather stations | Latest weather observations for TAS | Other Formats
Station Details ID: 097072 Name: STRAHAN AERODROME Lat: -42.16 Lon: 145.29 Height: 21.0 m
Data from the previous 72 hours. | See also: Recent months at Strahan
Date/Time
EDT
Temp
°C
App
Temp
°C
Dew
Point
°C
Rel
Hum
%
Delta-T
°C
Wind Press
QNH
hPa
Press
MSL
hPa
Rain since
9am
mm
Dir  Spd
km/h
Gust
km/h
Spd
kts
Gust
kts
24/12:00am 12.0 10.7 11.2 95 0.4 WNW 9 13 5 7 1015.1 1015.2 1.4
 
Date/Time
EDT
Temp
°C
App
Temp
°C
Dew
Point
°C
Rel
Hum
%
Delta-T
°C
Wind Press
QNH
hPa
Press
MSL
hPa
Rain since
9am
mm
Dir  Spd
km/h
Gust
km/h
Spd
kts
Gust
kts
23/11:35pm 12.0 11.2 11.2 95 0.4 NW 6 9 3 5 1015.2 1015.3 1.4
23/11:30pm 12.0 11.1 11.2 95 0.4 WNW 7 9 4 5 1015.2 1015.3 1.4
23/11:02pm 12.0 10.7 11.2 95 0.4 NW 9 13 5 7 1015.5 1015.6 1.0
23/11:00pm 12.0 10.7 11.2 95 0.4 NW 9 13 5 7 1015.4 1015.5 1.0
23/10:31pm 11.7 10.3 10.8 94 0.5 NW 9 13 5 7 1015.7 1015.7 0.8
23/10:30pm 11.7 9.9 10.8 94 0.5 NW 11 13 6 7 1015.7 1015.7 0.8
23/10:05pm 11.6 10.1 10.7 94 0.5 WNW 9 15 5 8 1015.5 1015.6 0.8
23/10:00pm 11.6 10.1 10.7 94 0.5 NW 9 13 5 7 1015.5 1015.6 0.8
23/09:39pm 12.0 9.5 11.1 94 0.5 WNW 15 20 8 11 1015.5 1015.6 0.8
23/09:30pm 11.9 8.9 10.8 93 0.6 WNW 17 22 9 12 1015.4 1015.5 0.6
23/09:28pm 11.9 8.9 10.8 93 0.6 WNW 17 22 9 12 1015.4 1015.5 0.6
23/09:00pm 12.3 10.7 11.4 94 0.5 NW 11 19 6 10 1015.3 1015.4 0.6
23/08:52pm 12.2 10.9 11.1 93 0.6 NW 9 11 5 6 1015.3 1015.4 0.6
23/08:34pm 12.2 10.1 11.1 93 0.6 NW 13 15 7 8 1015.2 1015.3 0.6
23/08:30pm 12.2 10.1 11.1 93 0.6 NW 13 17 7 9 1015.1 1015.2 0.6
23/08:00pm 12.4 10.2 10.8 90 0.8 WNW 13 17 7 9 1015.0 1015.1 0.6
23/07:53pm 12.4 11.0 10.8 90 0.8 WNW 9 11 5 6 1015.0 1015.1 0.6
23/07:30pm 12.5 11.0 10.7 89 0.9 WNW 9 13 5 7 1014.8 1014.9 0.6
23/07:26pm 12.5 11.0 10.7 89 0.9 WNW 9 13 5 7 1014.8 1014.9 0.6
23/07:00pm 12.6 11.2 11.0 90 0.8 WNW 9 13 5 7 1014.9 1015.0 0.6
23/06:31pm 12.6 10.4 10.8 89 0.9 WNW 13 19 7 10 1015.1 1015.2 0.6
23/06:30pm 12.6 10.4 10.8 89 0.9 WNW 13 19 7 10 1015.1 1015.2 0.6
23/06:00pm 12.8 10.7 11.0 89 0.9 WNW 13 15 7 8 1015.0 1015.1 0.6
23/05:30pm 12.9 10.5 11.3 90 0.8 W 15 20 8 11 1015.0 1015.1 0.6
23/05:14pm 13.1 10.4 11.8 92 0.7 W 17 22 9 12 1015.1 1015.2 0.6
23/05:00pm 12.7 9.3 11.3 91 0.7 WNW 20 24 11 13 1015.2 1015.3 0.6
23/04:45pm 13.3 10.8 12.4 94 0.5 WNW 17 22 9 12 1015.2 1015.3 0.6
23/04:30pm 12.6 10.2 11.3 92 0.7 WNW 15 22 8 12 1015.3 1015.4 0.6
23/04:24pm 12.8 10.4 11.5 92 0.7 NW 15 22 8 12 1015.3 1015.4 0.2
23/04:23pm 13.0 10.7 11.9 93 0.6 NW 15 20 8 11 1015.3 1015.4 0.2
23/04:02pm 12.9 9.7 11.1 89 0.9 NW 19 24 10 13 1015.4 1015.5 0.2
23/04:00pm 13.1 9.9 11.3 89 1.0 NW 19 24 10 13 1015.4 1015.5 0.2
23/03:30pm 13.1 10.3 11.3 89 1.0 NW 17 22 9 12 1015.7 1015.7 0.2
23/03:00pm 13.2 10.1 11.6 90 0.9 NW 19 24 10 13 1015.7 1015.7 0.2
23/02:35pm 12.8 10.0 11.5 92 0.7 NW 17 24 9 13 1015.9 1015.9 0.2
23/02:30pm 13.1 10.4 11.8 92 0.7 NW 17 22 9 12 1015.9 1015.9 0.2
23/02:16pm 12.8 9.6 11.4 91 0.7 NW 19 24 10 13 1015.9 1015.9 0.2
23/02:01pm 12.9 10.2 11.6 92 0.7 NW 17 20 9 11 1015.9 1015.9 0.2
23/02:00pm 13.0 10.7 11.7 92 0.7 NW 15 20 8 11 1015.9 1015.9 0.2
23/01:40pm 12.8 9.6 11.4 91 0.7 WNW 19 26 10 14 1016.1 1016.1 0.2
23/01:34pm 13.2 10.6 11.9 92 0.7 WNW 17 20 9 11 1016.1 1016.1 0.2
23/01:30pm 13.1 10.4 11.8 92 0.7 WNW 17 22 9 12 1016.1 1016.1 0.2
23/01:10pm 12.7 9.8 11.1 90 0.8 WNW 17 26 9 14 1016.2 1016.2 0.2
23/01:00pm 12.9 9.7 11.3 90 0.8 WNW 19 28 10 15 1016.2 1016.2 0.2
23/12:58pm 12.9 9.7 11.1 89 0.9 WNW 19 28 10 15 1016.2 1016.2 0.2
23/12:30pm 12.7 9.4 10.8 88 1.0 WNW 19 28 10 15 1016.4 1016.4 0.2
23/12:28pm 13.0 9.6 11.1 88 1.0 WNW 20 28 11 15 1016.4 1016.4 0.2
23/12:23pm 13.0 9.1 10.9 87 1.1 WNW 22 28 12 15 1016.5 1016.5 0.2
23/12:00pm 13.6 10.4 11.1 85 1.3 NW 19 24 10 13 1016.3 1016.3 0.2
23/11:30am 13.4 10.7 11.8 90 0.9 NW 17 22 9 12 1016.3 1016.3 0.2
23/11:20am 13.2 9.8 11.4 89 1.0 NW 20 24 11 13 1016.2 1016.2 0.2
23/11:05am 12.8 10.0 11.4 91 0.7 WNW 17 24 9 13 1016.3 1016.3 0.2
23/11:00am 12.8 9.6 11.4 91 0.7 NW 19 24 10 13 1016.4 1016.4 0.2
23/10:50am 13.4 10.5 12.3 93 0.6 NNW 19 24 10 13 1016.4 1016.4 0.2
23/10:30am 12.5 9.8 11.7 95 0.4 NNW 17 20 9 11 1016.4 1016.4 0.2
23/10:00am 12.1 9.7 11.3 95 0.4 NNW 15 20 8 11 1016.4 1016.4 0.0
23/09:56am 12.1 9.7 11.3 95 0.4 NNW 15 20 8 11 1016.4 1016.4 0.0
23/09:49am 12.3 10.4 11.7 96 0.3 NNW 13 19 7 10 1016.4 1016.4 0.0
23/09:30am 11.9 10.2 11.3 96 0.3 NNW 11 13 6 7 1016.4 1016.4 0.0
23/09:13am 11.6 9.8 11.0 96 0.3 N 11 15 6 8 1016.5 1016.5 0.0
23/09:00am 11.6 10.2 11.0 96 0.3 N 9 15 5 8 1016.4 1016.4 2.0
23/08:30am 11.3 9.8 10.7 96 0.3 NNE 9 15 5 8 1016.3 1016.3 2.0
23/08:27am 11.2 9.3 10.6 96 0.3 NNE 11 15 6 8 1016.3 1016.3 2.0
23/08:00am 10.7 8.7 10.1 96 0.3 NNE 11 15 6 8 1016.4 1016.4 2.0
23/07:30am 10.5 8.8 9.9 96 0.3 NNE 9 15 5 8 1016.5 1016.5 2.0
23/07:00am 10.5 8.8 9.9 96 0.3 NNE 9 13 5 7 1016.6 1016.6 1.8
23/06:58am 10.5 8.8 9.9 96 0.3 NNE 9 11 5 6 1016.6 1016.6 1.8
23/06:57am 10.5 8.8 9.9 96 0.3 NNE 9 11 5 6 1016.6 1016.6 1.8
23/06:30am 10.8 9.6 10.2 96 0.3 N 7 11 4 6 1016.4 1016.4 1.8
23/06:00am 10.4 9.3 9.8 96 0.3 N 6 7 3 4 1016.4 1016.4 1.4
23/05:30am 10.3 9.1 9.7 96 0.3 N 6 7 3 4 1016.4 1016.4 0.8
23/05:28am 10.4 9.3 9.8 96 0.3 N 6 7 3 4 1016.3 1016.3 0.8
23/05:00am 10.3 9.1 9.7 96 0.3 NNW 6 9 3 5 1016.2 1016.2 0.8
23/04:47am 10.3 8.9 9.7 96 0.3 NNE 7 9 4 5 1015.9 1015.9 0.8
23/04:30am 10.2 8.8 9.6 96 0.3 N 7 11 4 6 1015.8 1015.8 0.8
23/04:26am 10.3 8.9 9.7 96 0.3 N 7 11 4 6 1015.8 1015.8 0.8
23/04:25am 10.3 8.6 9.7 96 0.3 N 9 11 5 6 1015.8 1015.8 0.8
23/04:00am 10.3 8.9 9.7 96 0.3 N 7 9 4 5 1015.9 1015.9 0.8
23/03:30am 10.2 8.8 9.4 95 0.4 NE 7 9 4 5 1016.0 1016.0 0.6
23/03:01am 10.3 10.2 9.5 95 0.4 CALM 0 6 0 3 1016.3 1016.3 0.6
23/03:00am 10.3 9.8 9.5 95 0.4 NNE 2 6 1 3 1016.3 1016.3 0.6
23/02:30am 10.3 8.9 9.5 95 0.4 N 7 9 4 5 1016.2 1016.2 0.6
23/02:02am 10.3 9.5 9.5 95 0.4 E 4 6 2 3 1016.5 1016.5 0.6
23/02:00am 10.3 9.8 9.5 95 0.4 ESE 2 6 1 3 1016.6 1016.6 0.6
23/01:30am 10.4 10.3 9.6 95 0.4 CALM 0 0 0 0 1016.8 1016.8 0.6
23/01:00am 10.3 10.2 9.5 95 0.4 CALM 0 0 0 0 1017.0 1017.0 0.6
23/12:57am 10.3 10.2 9.5 95 0.4 CALM 0 6 0 3 1016.9 1016.9 0.6
23/12:55am 10.3 9.8 9.5 95 0.4 SW 2 6 1 3 1017.0 1017.0 0.6
23/12:30am 10.4 9.0 9.6 95 0.4 W 7 9 4 5 1017.1 1017.1 0.6
23/12:00am 10.4 9.2 9.6 95 0.4 NE 6 9 3 5 1016.9 1016.9 0.4
 
Date/Time
EDT
Temp
°C
App
Temp
°C
Dew
Point
°C
Rel
Hum
%
Delta-T
°C
Wind Press
QNH
hPa
Press
MSL
hPa
Rain since
9am
mm
Dir  Spd
km/h
Gust
km/h
Spd
kts
Gust
kts
22/11:30pm 10.3 8.9 9.5 95 0.4 NE 7 9 4 5 1017.2 1017.2 0.2
22/11:00pm 10.4 9.2 9.5 94 0.4 NNE 6 7 3 4 1017.3 1017.3 0.2
22/10:38pm 10.2 9.7 9.3 94 0.4 ENE 2 7 1 4 1017.4 1017.4 0.2
22/10:30pm 10.2 10.0 9.1 93 0.5 CALM 0 0 0 0 1017.4 1017.4 0.2
22/10:26pm 10.2 10.0 9.1 93 0.5 CALM 0 0 0 0 1017.5 1017.5 0.2
22/10:12pm 10.2 9.6 9.1 93 0.5 NNW 2 6 1 3 1017.5 1017.5 0.2
22/10:01pm 10.2 8.8 9.0 92 0.6 NW 6 7 3 4 1017.5 1017.5 0.2
22/10:00pm 10.3 9.0 9.1 92 0.6 NW 6 7 3 4 1017.5 1017.5 0.2
22/09:42pm 10.4 8.9 9.2 92 0.6 N 7 9 4 5 1017.4 1017.4 0.2
22/09:37pm 10.4 8.9 9.2 92 0.6 N 7 9 4 5 1017.3 1017.3 0.2
22/09:34pm 10.4 8.9 9.2 92 0.6 N 7 9 4 5 1017.3 1017.3 0.2
22/09:30pm 10.2 8.6 8.8 91 0.7 NNW 7 9 4 5 1017.3 1017.3 0.2
22/09:04pm 11.0 9.6 9.6 91 0.7 WSW 7 11 4 6 1017.3 1017.3 0.2
22/09:00pm 10.9 9.5 9.5 91 0.7 WSW 7 9 4 5 1017.4 1017.4 0.2
22/08:30pm 11.0 9.5 9.3 89 0.9 WNW 7 9 4 5 1016.9 1016.9 0.2
22/08:11pm 10.9 9.4 9.0 88 0.9 SW 7 11 4 6 1017.0 1017.0 0.2
22/08:00pm 10.9 8.5 8.8 87 1.0 WSW 11 13 6 7 1016.9 1016.9 0.2
22/07:53pm 11.0 8.7 9.1 88 0.9 WSW 11 15 6 8 1016.8 1016.8 0.2
22/07:33pm 11.4 8.4 9.3 87 1.1 WSW 15 20 8 11 1016.9 1016.9 0.2
22/07:31pm 11.4 8.4 9.3 87 1.1 W 15 20 8 11 1016.9 1016.9 0.2
22/07:30pm 11.5 8.5 9.2 86 1.2 W 15 20 8 11 1016.9 1016.9 0.2
22/07:00pm 12.2 9.5 9.0 81 1.6 WSW 13 20 7 11 1016.5 1016.5 0.2
22/06:30pm 12.4 9.4 9.1 80 1.7 W 15 19 8 10 1016.6 1016.6 0.2
22/06:17pm 12.7 9.6 8.8 77 2.0 W 15 20 8 11 1016.4 1016.4 0.2
22/06:05pm 13.0 10.0 9.1 77 2.0 W 15 20 8 11 1016.2 1016.2 0.2
22/06:04pm 13.3 10.4 9.5 78 1.9 W 15 20 8 11 1016.1 1016.1 0.2
22/06:00pm 13.1 10.2 9.7 80 1.7 W 15 20 8 11 1016.1 1016.1 0.2
22/05:30pm 13.0 10.4 9.4 79 1.8 W 13 17 7 9 1015.8 1015.8 0.2
22/05:22pm 12.7 9.9 8.6 76 2.0 WSW 13 19 7 10 1015.8 1015.8 0.2
22/05:00pm 13.6 10.1 8.9 73 2.4 W 17 22 9 12 1015.5 1015.6 0.2
22/04:30pm 14.5 11.2 9.5 72 2.6 W 17 22 9 12 1015.7 1015.7 0.2
22/04:07pm 13.7 10.2 8.7 72 2.5 W 17 22 9 12 1015.8 1015.8 0.2
22/04:00pm 13.5 9.9 9.7 78 1.9 W 19 24 10 13 1015.8 1015.8 0.2
22/03:51pm 13.0 9.3 9.3 78 1.9 W 19 26 10 14 1015.8 1015.8 0.2
22/03:32pm 13.1 9.6 10.1 82 1.5 WSW 19 26 10 14 1015.9 1015.9 0.2
22/03:30pm 13.1 9.5 9.7 80 1.7 W 19 26 10 14 1016.0 1016.0 0.2
22/03:27pm 13.3 9.7 9.7 79 1.8 W 19 24 10 13 1016.0 1016.0 0.2
22/03:00pm 14.3 10.5 9.9 75 2.3 W 20 28 11 15 1016.1 1016.1 0.2
22/02:30pm 14.7 10.5 9.9 73 2.5 W 22 33 12 18 1016.1 1016.1 0.2
22/02:00pm 14.4 9.7 9.4 72 2.6 W 24 30 13 16 1016.2 1016.2 0.2
22/01:30pm 15.1 11.1 10.3 73 2.5 W 22 30 12 16 1016.1 1016.1 0.2
22/01:00pm 13.9 10.1 9.1 73 2.4 W 19 28 10 15 1016.0 1016.0 0.0
22/12:30pm 14.9 11.6 10.9 77 2.1 W 19 26 10 14 1016.0 1016.0 0.0
22/12:00pm 13.9 10.2 10.3 79 1.9 WSW 20 26 11 14 1016.0 1016.0 0.0
22/11:30am 13.2 9.5 9.5 78 1.9 WSW 19 26 10 14 1016.1 1016.1 0.0
22/11:00am 12.7 9.3 9.3 80 1.7 WSW 17 22 9 12 1016.1 1016.1 0.0
22/10:45am 12.6 9.3 9.6 82 1.5 WSW 17 22 9 12 1015.9 1015.9 0.0
22/10:30am 11.9 8.5 9.3 84 1.3 SW 17 20 9 11 1015.8 1015.8 0.0
22/10:03am 11.6 8.0 10.0 90 0.8 SSW 19 22 10 12 1015.8 1015.8 0.0
22/10:00am 11.8 8.3 10.2 90 0.8 SW 19 22 10 12 1015.8 1015.8 0.0
22/09:57am 11.7 8.2 10.1 90 0.8 SW 19 22 10 12 1015.8 1015.8 0.0
22/09:53am 11.6 8.4 9.9 89 0.9 SW 17 20 9 11 1015.7 1015.7 0.0
22/09:33am 12.0 9.6 10.1 88 1.0 SW 13 19 7 10 1015.4 1015.5 0.0
22/09:30am 12.4 10.1 10.6 89 0.9 SW 13 19 7 10 1015.4 1015.5 0.0
22/09:08am 11.2 9.2 10.0 92 0.6 SW 11 15 6 8 1015.5 1015.6 0.0
22/09:00am 11.1 8.7 9.9 92 0.6 SW 13 20 7 11 1015.8 1015.8 4.2
22/08:50am 11.0 7.7 9.6 91 0.7 SSW 17 24 9 13 1015.8 1015.8 4.2
22/08:30am 11.2 8.4 10.0 92 0.6 SSW 15 20 8 11 1015.8 1015.8 4.0
22/08:00am 11.0 8.1 9.8 92 0.6 SSW 15 20 8 11 1015.4 1015.5 4.0
22/07:30am 10.6 6.9 9.5 93 0.6 SW 19 26 10 14 1014.9 1015.0 4.0
22/07:00am 10.7 7.5 9.8 94 0.5 SW 17 24 9 13 1014.9 1015.0 4.0
22/06:42am 10.3 7.3 9.4 94 0.4 SW 15 24 8 13 1014.7 1014.8 4.0
22/06:40am 10.3 7.3 9.4 94 0.4 SSW 15 24 8 13 1014.6 1014.7 4.0
22/06:30am 10.4 7.1 9.5 94 0.5 SW 17 26 9 14 1014.6 1014.7 4.0
22/06:22am 10.5 8.0 9.6 94 0.5 SSW 13 17 7 9 1014.6 1014.7 3.6
22/06:20am 10.5 8.0 9.6 94 0.5 SSW 13 17 7 9 1014.6 1014.7 3.6
22/06:04am 10.6 8.1 9.7 94 0.5 SSW 13 19 7 10 1014.5 1014.6 3.4
22/06:03am 10.6 8.1 9.7 94 0.5 SSW 13 19 7 10 1014.5 1014.6 3.4
22/06:02am 10.6 8.1 9.7 94 0.5 SSW 13 19 7 10 1014.5 1014.6 3.4
22/06:00am 10.6 7.7 9.7 94 0.5 SW 15 20 8 11 1014.5 1014.6 3.4
22/05:58am 10.6 7.7 9.7 94 0.5 SW 15 20 8 11 1014.5 1014.6 3.4
22/05:45am 10.5 8.4 9.6 94 0.5 SSW 11 15 6 8 1014.4 1014.5 3.4
22/05:35am 10.5 7.9 9.4 93 0.5 SSW 13 19 7 10 1014.3 1014.4 3.4
22/05:32am 10.4 7.4 9.3 93 0.5 SSW 15 20 8 11 1014.3 1014.4 3.4
22/05:30am 10.4 7.0 9.3 93 0.5 SSW 17 22 9 12 1014.3 1014.4 3.4
22/05:13am 10.6 7.3 9.5 93 0.6 SW 17 24 9 13 1014.2 1014.3 3.4
22/05:11am 10.6 7.3 9.5 93 0.6 SW 17 24 9 13 1014.2 1014.3 3.4
22/05:00am 10.6 7.3 9.5 93 0.6 WSW 17 26 9 14 1014.2 1014.3 3.4
22/04:52am 10.6 7.3 9.5 93 0.6 SW 17 28 9 15 1014.2 1014.3 3.4
22/04:35am 10.3 6.3 9.1 92 0.6 SW 20 35 11 19 1014.3 1014.4 3.4
22/04:30am 10.7 7.8 9.6 93 0.6 SW 15 20 8 11 1014.3 1014.4 3.4
22/04:25am 10.7 7.4 9.6 93 0.6 SW 17 22 9 12 1014.2 1014.3 3.4
22/04:13am 10.5 6.8 9.6 94 0.5 SW 19 24 10 13 1014.3 1014.4 3.2
22/04:00am 10.6 7.3 9.7 94 0.5 SW 17 20 9 11 1014.4 1014.5 3.2
22/03:51am 10.6 7.3 9.7 94 0.5 WSW 17 24 9 13 1014.4 1014.5 3.2
22/03:49am 10.5 7.2 9.6 94 0.5 WSW 17 24 9 13 1014.4 1014.5 3.2
22/03:46am 10.5 7.2 9.6 94 0.5 WSW 17 24 9 13 1014.4 1014.5 3.2
22/03:30am 10.5 6.6 9.6 94 0.5 WSW 20 30 11 16 1014.5 1014.6 3.2
22/03:00am 10.6 6.3 9.5 93 0.6 WSW 22 32 12 17 1014.7 1014.8 3.0
22/02:46am 10.8 7.2 9.9 94 0.5 WSW 19 30 10 16 1014.8 1014.9 3.0
22/02:40am 10.7 7.5 9.8 94 0.5 WSW 17 24 9 13 1014.9 1015.0 3.0
22/02:39am 10.7 7.5 9.8 94 0.5 WSW 17 24 9 13 1014.9 1015.0 3.0
22/02:30am 10.7 6.9 9.8 94 0.5 WSW 20 28 11 15 1015.0 1015.1 2.6
22/02:27am 10.7 7.1 9.8 94 0.5 WSW 19 28 10 15 1015.0 1015.1 2.6
22/02:00am 10.9 7.3 9.7 92 0.6 W 19 28 10 15 1015.0 1015.1 2.6
22/01:55am 10.9 8.0 9.5 91 0.7 WSW 15 22 8 12 1015.1 1015.2 2.4
22/01:53am 10.9 8.0 9.5 91 0.7 WSW 15 22 8 12 1015.1 1015.2 2.4
22/01:30am 10.9 8.0 9.5 91 0.7 WSW 15 20 8 11 1015.3 1015.4 2.2
22/01:01am 10.7 7.8 9.5 92 0.6 WSW 15 22 8 12 1015.8 1015.8 2.2
22/01:00am 10.8 8.3 9.7 93 0.6 WSW 13 19 7 10 1015.8 1015.8 2.2
22/12:39am 10.8 6.9 9.6 92 0.6 WSW 20 28 11 15 1016.0 1016.0 2.2
22/12:30am 10.8 7.5 9.6 92 0.6 WSW 17 26 9 14 1016.0 1016.0 2.2
22/12:18am 10.8 7.9 9.6 92 0.6 WSW 15 20 8 11 1016.1 1016.1 2.2
22/12:00am 10.7 7.4 9.5 92 0.6 WSW 17 28 9 15 1016.2 1016.2 2.2
 
Date/Time
EDT
Temp
°C
App
Temp
°C
Dew
Point
°C
Rel
Hum
%
Delta-T
°C
Wind Press
QNH
hPa
Press
MSL
hPa
Rain since
9am
mm
Dir  Spd
km/h
Gust
km/h
Spd
kts
Gust
kts
21/11:48pm 10.9 7.3 9.7 92 0.6 WSW 19 26 10 14 1016.3 1016.3 2.0
21/11:37pm 10.8 7.2 9.7 93 0.6 WSW 19 28 10 15 1016.3 1016.3 2.0
21/11:30pm 10.9 8.0 9.8 93 0.6 WSW 15 19 8 10 1016.4 1016.4 2.0
21/11:06pm 10.9 7.3 9.8 93 0.6 WSW 19 24 10 13 1016.5 1016.5 2.0
21/11:02pm 10.8 7.5 9.7 93 0.6 WSW 17 22 9 12 1016.6 1016.6 2.0
21/11:00pm 10.8 7.5 9.7 93 0.6 WSW 17 24 9 13 1016.6 1016.6 2.0
21/10:46pm 10.8 7.2 9.7 93 0.6 WSW 19 26 10 14 1016.7 1016.7 2.0
21/10:35pm 10.8 7.5 9.7 93 0.6 WSW 17 24 9 13 1016.8 1016.8 1.8
21/10:30pm 10.8 7.9 9.7 93 0.6 WSW 15 19 8 10 1016.8 1016.8 1.8
21/10:16pm 10.8 7.2 9.7 93 0.6 WSW 19 26 10 14 1017.0 1017.0 1.8
21/10:00pm 10.8 7.9 9.7 93 0.6 WSW 15 20 8 11 1017.2 1017.2 1.8
21/09:57pm 10.9 8.0 9.8 93 0.6 W 15 20 8 11 1017.2 1017.2 1.8
21/09:37pm 10.7 6.5 9.6 93 0.6 WSW 22 28 12 15 1017.3 1017.3 1.8
21/09:33pm 10.7 6.5 9.8 94 0.5 WSW 22 28 12 15 1017.3 1017.3 1.8
21/09:30pm 10.7 6.9 9.8 94 0.5 WSW 20 28 11 15 1017.3 1017.3 1.8
21/09:00pm 10.6 7.0 9.7 94 0.5 W 19 32 10 17 1017.5 1017.5 1.8
21/08:56pm 10.6 7.0 9.7 94 0.5 WSW 19 32 10 17 1017.5 1017.5 1.8
21/08:44pm 10.5 6.2 9.4 93 0.5 W 22 35 12 19 1017.4 1017.4 1.6
21/08:30pm 10.4 6.1 9.3 93 0.5 W 22 35 12 19 1017.4 1017.4 1.6
21/08:20pm 10.7 6.5 9.6 93 0.6 W 22 30 12 16 1017.5 1017.5 1.6
21/08:00pm 10.7 6.5 9.8 94 0.5 W 22 30 12 16 1017.4 1017.4 1.6
21/07:49pm 10.7 7.1 9.8 94 0.5 W 19 26 10 14 1017.4 1017.4 1.6
21/07:30pm 10.7 7.1 9.8 94 0.5 W 19 28 10 15 1017.6 1017.6 1.6
21/07:06pm 10.6 6.3 9.5 93 0.6 W 22 33 12 18 1017.6 1017.6 1.4
21/07:00pm 10.7 6.8 9.6 93 0.6 W 20 28 11 15 1017.6 1017.6 1.4
21/06:48pm 10.6 6.3 9.5 93 0.6 W 22 32 12 17 1017.6 1017.6 1.4
21/06:44pm 10.6 6.3 9.5 93 0.6 W 22 32 12 17 1017.6 1017.6 1.4
21/06:43pm 10.6 6.3 9.5 93 0.6 W 22 32 12 17 1017.6 1017.6 1.4
21/06:30pm 10.7 6.1 9.6 93 0.6 W 24 32 13 17 1017.6 1017.6 1.4
21/06:00pm 10.9 7.0 9.5 91 0.7 W 20 30 11 16 1017.9 1017.9 1.2
21/05:47pm 11.3 7.5 9.7 90 0.8 W 20 32 11 17 1017.8 1017.8 1.2
21/05:41pm 11.2 7.3 9.5 89 0.9 WNW 20 26 11 14 1017.8 1017.8 1.0
21/05:30pm 11.5 7.8 10.1 91 0.7 WNW 20 35 11 19 1017.9 1017.9 1.0
21/05:21pm 11.3 7.0 9.4 88 1.0 WNW 22 37 12 20 1017.8 1017.8 1.0
21/05:14pm 11.5 7.6 9.6 88 1.0 WNW 20 30 11 16 1017.9 1017.9 1.0
21/05:00pm 11.6 6.6 9.7 88 1.0 W 26 33 14 18 1018.1 1018.1 1.0
21/04:58pm 11.5 6.5 9.4 87 1.1 W 26 33 14 18 1018.2 1018.2 1.0
21/04:30pm 12.2 6.8 9.4 83 1.4 W 28 37 15 20 1018.5 1018.5 1.0
21/04:00pm 11.9 6.8 9.3 84 1.3 W 26 35 14 19 1018.8 1018.8 1.0
21/03:51pm 11.6 6.5 9.2 85 1.2 WSW 26 35 14 19 1018.8 1018.8 1.0
21/03:40pm 11.7 6.7 9.4 86 1.2 W 26 35 14 19 1018.9 1018.9 1.0
21/03:38pm 11.4 6.3 9.3 87 1.1 W 26 35 14 19 1019.0 1019.0 1.0
21/03:37pm 11.6 7.0 9.7 88 1.0 W 24 32 13 17 1019.0 1019.0 1.0
21/03:30pm 11.4 7.2 9.8 90 0.8 W 22 30 12 16 1019.1 1019.1 1.0
21/03:17pm 11.1 6.5 9.5 90 0.8 WNW 24 33 13 18 1019.3 1019.3 1.0
21/03:14pm 11.3 7.1 9.6 89 0.9 WNW 22 32 12 17 1019.3 1019.3 1.0
21/03:00pm 10.9 6.1 9.0 88 0.9 W 24 35 13 19 1019.5 1019.5 1.0
21/02:52pm 11.1 6.7 9.0 87 1.0 W 22 35 12 19 1019.5 1019.5 1.0
21/02:50pm 11.3 7.4 9.4 88 1.0 WNW 20 32 11 17 1019.5 1019.5 1.0
21/02:33pm 10.9 5.7 8.7 86 1.1 W 26 43 14 23 1019.9 1019.9 1.0
21/02:32pm 10.8 5.5 8.4 85 1.2 W 26 43 14 23 1019.9 1019.9 1.0
21/02:30pm 11.3 6.5 8.9 85 1.2 W 24 37 13 20 1019.9 1019.9 1.0
21/02:29pm 11.6 7.3 9.2 85 1.2 W 22 30 12 16 1019.9 1019.9 1.0
21/02:24pm 11.4 7.4 9.0 85 1.2 W 20 30 11 16 1019.9 1019.9 1.0
21/02:10pm 11.4 7.4 9.1 86 1.1 W 20 30 11 16 1019.9 1019.9 1.0
21/02:06pm 11.7 7.8 9.3 85 1.2 WNW 20 30 11 16 1019.9 1019.9 1.0
21/02:00pm 12.2 7.9 9.2 82 1.5 W 22 30 12 16 1020.0 1020.0 0.6
21/01:30pm 12.1 6.8 10.0 87 1.1 W 28 39 15 21 1020.2 1020.2 0.6
21/01:26pm 12.3 7.5 10.4 88 1.0 W 26 35 14 19 1020.2 1020.2 0.6
21/01:17pm 11.8 7.4 10.4 91 0.7 W 24 32 13 17 1020.3 1020.3 0.6
21/01:02pm 11.2 6.6 9.6 90 0.8 W 24 32 13 17 1020.5 1020.5 0.6
21/01:00pm 11.3 7.1 9.7 90 0.8 W 22 30 12 16 1020.5 1020.5 0.6
21/12:30pm 11.4 7.1 9.5 88 1.0 W 22 35 12 19 1020.8 1020.8 0.4
21/12:28pm 11.5 6.9 9.6 88 1.0 W 24 35 13 19 1020.8 1020.8 0.4
21/12:27pm 11.6 7.3 9.5 87 1.1 W 22 35 12 19 1020.8 1020.8 0.4
21/12:00pm 12.5 8.5 9.0 79 1.8 WNW 20 30 11 16 1021.0 1021.0 0.2
21/11:30am 11.9 6.3 8.6 80 1.6 W 28 37 15 20 1021.3 1021.3 0.2
21/11:15am 11.8 8.0 9.7 87 1.1 W 20 30 11 16 1021.3 1021.3 0.2
21/11:09am 11.6 7.4 9.9 89 0.9 W 22 35 12 19 1021.4 1021.4 0.2
21/11:00am 11.2 6.1 9.3 88 0.9 W 26 33 14 18 1021.5 1021.5 0.2
21/10:56am 11.2 6.4 8.9 86 1.1 WNW 24 33 13 18 1021.6 1021.6 0.2
21/10:54am 11.5 7.1 9.1 85 1.2 WNW 22 32 12 17 1021.6 1021.6 0.2
21/10:30am 12.0 7.8 8.3 78 1.8 WNW 20 26 11 14 1021.8 1021.8 0.2
21/10:00am 11.7 7.2 8.4 80 1.6 WNW 22 28 12 15 1022.0 1022.0 0.2
21/09:30am 11.5 7.5 9.2 86 1.2 W 20 28 11 15 1021.9 1021.9 0.2
21/09:25am 11.6 7.8 9.7 88 1.0 W 20 28 11 15 1021.9 1021.9 0.2
21/09:09am 11.1 7.0 8.7 85 1.2 W 20 32 11 17 1022.1 1022.1 0.2
21/09:00am 12.1 9.0 8.8 80 1.6 WNW 15 20 8 11 1022.0 1022.0 1.2
21/08:30am 10.7 7.8 8.3 85 1.2 WNW 13 24 7 13 1022.2 1022.2 1.2
21/08:00am 10.7 7.5 7.0 78 1.7 W 13 19 7 10 1022.3 1022.3 1.2
21/07:30am 10.5 6.2 7.2 80 1.6 W 19 28 10 15 1022.4 1022.4 1.2
21/07:00am 9.9 5.9 6.6 80 1.5 W 17 22 9 12 1022.5 1022.5 1.2
21/06:30am 9.5 6.8 7.3 86 1.0 W 11 17 6 9 1022.5 1022.5 1.2
21/06:00am 9.2 6.5 7.5 89 0.8 W 11 15 6 8 1022.6 1022.6 1.2
21/05:30am 9.5 3.6 7.6 88 0.9 W 28 41 15 22 1022.8 1022.8 1.2
21/05:00am 9.4 5.1 6.8 84 1.2 WNW 19 30 10 16 1022.9 1022.9 1.2
21/04:30am 9.0 6.0 7.8 92 0.6 W 13 26 7 14 1023.2 1023.2 1.2
21/04:00am 8.5 5.8 7.3 92 0.6 NNE 11 13 6 7 1023.4 1023.4 1.2
21/03:31am 8.6 5.9 7.4 92 0.6 WSW 11 19 6 10 1023.7 1023.7 0.8
21/03:30am 8.6 5.5 7.4 92 0.6 W 13 19 7 10 1023.8 1023.8 0.8
21/03:05am 9.1 6.1 7.9 92 0.6 WSW 13 30 7 16 1024.2 1024.2 0.8
21/03:00am 8.8 7.9 7.6 92 0.6 SW 2 20 1 11 1024.3 1024.3 0.8
21/02:30am 8.7 6.4 7.5 92 0.6 SW 9 13 5 7 1024.4 1024.4 0.8
21/02:00am 8.6 6.7 7.5 93 0.5 NE 7 11 4 6 1024.6 1024.6 0.6
21/01:30am 8.8 6.9 7.4 91 0.7 NNE 7 9 4 5 1025.1 1025.1 0.6
21/01:29am 8.8 6.9 7.4 91 0.7 N 7 9 4 5 1025.2 1025.2 0.6
21/01:18am 8.8 7.0 7.3 90 0.7 WSW 6 7 3 4 1025.3 1025.3 0.6
21/01:06am 8.9 7.0 7.4 90 0.7 WNW 7 13 4 7 1025.5 1025.5 0.4
21/01:00am 8.8 6.4 7.1 89 0.8 WNW 9 15 5 8 1025.4 1025.4 0.4
21/12:38am 9.7 4.5 7.3 85 1.1 WSW 24 33 13 18 1025.5 1025.5 0.4
21/12:30am 10.1 5.5 5.7 74 2.0 WSW 19 30 10 16 1025.4 1025.4 0.2

Other Formats:

Comma delimited format used in spreadsheet applications
http://www.bom.gov.au/fwo/IDT60801/IDT60801.94956.axf

JavaScript Object Notation format (JSON) in row-major order
http://www.bom.gov.au/fwo/IDT60801/IDT60801.94956.json